Time;durP1;ratioP1;P1;durP2;ratioP2;P2;SDS_P1;SDS_P2;PMS_P1;PMS_P2;Temp;Humidity;BMP_temperature;BMP_pressure;BME280_temperature;BME280_humidity;BME280_pressure;Samples;Min_cycle;Max_cycle;Signal;HPM_P1;HPM_P2
2022/10/06 00:01:54;;;;;;;;;;;;;;;;;;5091963;28;19955;-79
2022/10/06 00:04:20;;;;;;;;;;;;;;;;;;5096856;28;20351;-78
2022/10/06 00:06:47;;;;;;;;;;;;;;;;;;5095757;28;19971;-78
2022/10/06 00:09:13;;;;;;;;;;;;;;;;;;5108976;28;19963;-79
2022/10/06 00:11:39;;;;;;;;;;;;;;;;;;5107062;28;19955;-79
2022/10/06 00:14:05;;;;;;;;;;;;;;;;;;5090930;28;19974;-78
2022/10/06 00:16:31;;;;;;;;;;;;;;;;;;5098873;28;19959;-78
2022/10/06 00:18:58;;;;;;;;;;;;;;;;;;5097230;28;19959;-79
2022/10/06 00:21:24;;;;;;;;;;;;;;;;;;5095408;28;19952;-78
2022/10/06 00:23:50;;;;;;;;;;;;;;;;;;5078312;28;19954;-79
2022/10/06 00:26:16;;;;;;;;;;;;;;;;;;5086803;28;20342;-79
2022/10/06 00:28:43;;;;;;;;;;;;;;;;;;5099333;28;20553;-78
2022/10/06 00:31:09;;;;;;;;;;;;;;;;;;5098401;28;19977;-78
2022/10/06 00:33:36;;;;;;;;;;;;;;;;;;5101545;28;19943;-77
2022/10/06 00:36:02;;;;;;;;;;;;;;;;;;5105558;28;19947;-78
2022/10/06 00:38:29;;;;;;;;;;;;;;;;;;5101669;28;19955;-78
2022/10/06 00:40:55;;;;;;;;;;;;;;;;;;5109777;27;19950;-77
2022/10/06 00:43:21;;;;;;;;;;;;;;;;;;5105364;27;19963;-78
2022/10/06 00:45:47;;;;;;;;;;;;;;;;;;5101096;28;19962;-78
2022/10/06 00:48:13;;;;;;;;;;;;;;;;;;5107433;28;20354;-78
2022/10/06 00:50:40;;;;;;;;;;;;;;;;;;5103334;28;19958;-78
2022/10/06 00:53:06;;;;;;;;;;;;;;;;;;5105906;28;19961;-77
2022/10/06 00:55:32;;;;;;;;;;;;;;;;;;5102439;27;19924;-78
2022/10/06 00:57:58;;;;;;;;;;;;;;;;;;5114237;27;19974;-78
2022/10/06 01:00:24;;;;;;;;;;;;;;;;;;5102070;28;20370;-78
2022/10/06 01:02:50;;;;;;;;;;;;;;;;;;5097260;28;19959;-79
2022/10/06 01:05:17;;;;;;;;;;;;;;;;;;5086337;28;19963;-79
2022/10/06 01:07:43;;;;;;;;;;;;;;;;;;5097240;28;19963;-79
2022/10/06 01:10:09;;;;;;;;;;;;;;;;;;5095332;28;19963;-80
2022/10/06 01:12:35;;;;;;;;;;;;;;;;;;5095240;28;19916;-79
2022/10/06 01:15:01;;;;;;;;;;;;;;;;;;5104129;28;19970;-77
2022/10/06 01:17:28;;;;;;;;;;;;;;;;;;5103029;27;19966;-77
2022/10/06 01:19:55;;;;;;;;;;;;;;;;;;5098506;28;19979;-76
2022/10/06 01:22:21;;;;;;;;;;;;;;;;;;5093812;28;19944;-77
2022/10/06 01:24:49;;;;;;;;;;;;;;;;;;5095451;28;20418;-77
2022/10/06 01:27:15;;;;;;;;;;;;;;;;;;5104599;28;19982;-76
2022/10/06 01:29:41;;;;;;;;;;;;;;;;;;5084951;28;20366;-78
2022/10/06 01:32:08;;;;;;;;;;;;;;;;;;5106702;28;19966;-78
2022/10/06 01:34:34;;;;;;;;;;;;;;;;;;5099491;28;19967;-78
2022/10/06 01:37:00;;;;;;;;;;;;;;;;;;5098762;28;19959;-78
2022/10/06 01:39:26;;;;;;;;;;;;;;;;;;5100358;28;19962;-78
2022/10/06 01:41:52;;;;;;;;;;;;;;;;;;5094386;28;20362;-80
2022/10/06 01:44:18;;;;;;;;;;;;;;;;;;5101745;28;19947;-77
2022/10/06 01:46:45;;;;;;;;;;;;;;;;;;5099984;28;20366;-77
2022/10/06 01:49:11;;;;;;;;;;;;;;;;;;5102501;28;19967;-77
2022/10/06 01:51:37;;;;;;;;;;;;;;;;;;5098337;28;19963;-77
2022/10/06 01:54:03;;;;;;;;;;;;;;;;;;5100305;28;20030;-77
2022/10/06 01:56:30;;;;;;;;;;;;;;;;;;5099564;28;20298;-77
2022/10/06 01:58:56;;;;;;;;;;;;;;;;;;5100208;28;19955;-77
2022/10/06 02:01:22;;;;;;;;;;;;;;;;;;5100494;28;19948;-77
2022/10/06 02:03:48;;;;;;;;;;;;;;;;;;5097350;28;19969;-78
2022/10/06 02:06:15;;;;;;;;;;;;;;;;;;5102271;28;20503;-77
2022/10/06 02:08:41;;;;;;;;;;;;;;;;;;5100945;28;19963;-78
2022/10/06 02:11:08;;;;;;;;;;;;;;;;;;5102272;28;19958;-79
2022/10/06 02:13:34;;;;;;;;;;;;;;;;;;5102925;28;19966;-78
2022/10/06 02:16:00;;;;;;;;;;;;;;;;;;5094935;28;19947;-77
2022/10/06 02:18:26;;;;;;;;;;;;;;;;;;5102253;28;19954;-77
2022/10/06 02:20:53;;;;;;;;;;;;;;;;;;5099297;28;20616;-77
2022/10/06 02:23:19;;;;;;;;;;;;;;;;;;5102787;28;19955;-77
2022/10/06 02:25:45;;;;;;;;;;;;;;;;;;5090683;28;19955;-77
2022/10/06 02:28:11;;;;;;;;;;;;;;;;;;5103989;28;19985;-78
2022/10/06 02:30:37;;;;;;;;;;;;;;;;;;5098769;28;19951;-77
2022/10/06 02:33:03;;;;;;;;;;;;;;;;;;5102506;28;19948;-77
2022/10/06 02:35:30;;;;;;;;;;;;;;;;;;5102854;28;19947;-78
2022/10/06 02:37:56;;;;;;;;;;;;;;;;;;5105105;28;20418;-77
2022/10/06 02:40:22;;;;;;;;;;;;;;;;;;5105284;28;19974;-77
2022/10/06 02:42:48;;;;;;;;;;;;;;;;;;5104911;28;19959;-77
2022/10/06 02:45:15;;;;;;;;;;;;;;;;;;5099633;28;19968;-77
2022/10/06 02:47:41;;;;;;;;;;;;;;;;;;5099393;28;20010;-77
2022/10/06 02:50:07;;;;;;;;;;;;;;;;;;5100139;28;19959;-77
2022/10/06 02:52:34;;;;;;;;;;;;;;;;;;5099330;28;19962;-77
2022/10/06 02:55:00;;;;;;;;;;;;;;;;;;5081727;28;19972;-77
2022/10/06 02:57:26;;;;;;;;;;;;;;;;;;5089015;28;19990;-77
2022/10/06 02:59:52;;;;;;;;;;;;;;;;;;5103251;28;19959;-77
2022/10/06 03:02:18;;;;;;;;;;;;;;;;;;5103753;28;20041;-77
2022/10/06 03:04:44;;;;;;;;;;;;;;;;;;5103788;28;19959;-77
2022/10/06 03:07:11;;;;;;;;;;;;;;;;;;5097988;28;19962;-77
2022/10/06 03:09:37;;;;;;;;;;;;;;;;;;5096406;28;19966;-78
2022/10/06 03:12:03;;;;;;;;;;;;;;;;;;5101501;28;19947;-77
2022/10/06 03:14:29;;;;;;;;;;;;;;;;;;5093993;28;19954;-78
2022/10/06 03:16:56;;;;;;;;;;;;;;;;;;5103392;28;19948;-78
2022/10/06 03:19:22;;;;;;;;;;;;;;;;;;5101341;28;19967;-78
2022/10/06 03:21:48;;;;;;;;;;;;;;;;;;5104441;28;20474;-78
2022/10/06 03:24:14;;;;;;;;;;;;;;;;;;5103927;28;19963;-78
2022/10/06 03:26:40;;;;;;;;;;;;;;;;;;5093104;28;19979;-78
2022/10/06 03:29:07;;;;;;;;;;;;;;;;;;5095334;28;19965;-78
2022/10/06 03:31:33;;;;;;;;;;;;;;;;;;5103919;28;19983;-79
2022/10/06 03:33:59;;;;;;;;;;;;;;;;;;5098667;28;19959;-78
2022/10/06 03:36:25;;;;;;;;;;;;;;;;;;5108961;28;20354;-79
2022/10/06 03:38:51;;;;;;;;;;;;;;;;;;5099793;28;20468;-78
2022/10/06 03:41:18;;;;;;;;;;;;;;;;;;5100462;28;19956;-79
2022/10/06 03:43:44;;;;;;;;;;;;;;;;;;5100070;28;19962;-79
2022/10/06 03:46:10;;;;;;;;;;;;;;;;;;5101036;28;19951;-79
2022/10/06 03:48:36;;;;;;;;;;;;;;;;;;5100057;28;20381;-78
2022/10/06 03:51:02;;;;;;;;;;;;;;;;;;5105554;28;19947;-78
2022/10/06 03:53:29;;;;;;;;;;;;;;;;;;5095921;28;19967;-78
2022/10/06 03:55:55;;;;;;;;;;;;;;;;;;5104664;28;20098;-80
2022/10/06 03:58:21;;;;;;;;;;;;;;;;;;5086773;28;20418;-77
2022/10/06 04:00:47;;;;;;;;;;;;;;;;;;5103008;28;19955;-75
2022/10/06 04:03:14;;;;;;;;;;;;;;;;;;5093501;28;19971;-76
2022/10/06 04:05:40;;;;;;;;;;;;;;;;;;5090466;27;19985;-77
2022/10/06 04:08:06;;;;;;;;;;;;;;;;;;5077111;28;19965;-78
2022/10/06 04:10:32;;;;;;;;;;;;;;;;;;5103221;28;19958;-78
2022/10/06 04:12:58;;;;;;;;;;;;;;;;;;5099771;28;19947;-76
2022/10/06 04:15:24;;;;;;;;;;;;;;;;;;5097090;28;19924;-77
2022/10/06 04:17:51;;;;;;;;;;;;;;;;;;5094335;28;20386;-76
2022/10/06 04:20:17;;;;;;;;;;;;;;;;;;5095688;27;19955;-76
2022/10/06 04:22:43;;;;;;;;;;;;;;;;;;5099245;28;20001;-76
2022/10/06 04:25:09;;;;;;;;;;;;;;;;;;5091922;28;19920;-76
2022/10/06 04:27:36;;;;;;;;;;;;;;;;;;5100225;28;19959;-77
2022/10/06 04:30:02;;;;;;;;;;;;;;;;;;5105097;28;19959;-76
2022/10/06 04:32:28;;;;;;;;;;;;;;;;;;5100095;28;19963;-76
2022/10/06 04:34:54;;;;;;;;;;;;;;;;;;5086098;28;19963;-76
2022/10/06 04:37:20;;;;;;;;;;;;;;;;;;5100386;28;19956;-75
2022/10/06 04:39:47;;;;;;;;;;;;;;;;;;5103163;28;19978;-76
2022/10/06 04:42:13;;;;;;;;;;;;;;;;;;5099612;28;20387;-74
2022/10/06 04:44:39;;;;;;;;;;;;;;;;;;5096782;28;19960;-75
2022/10/06 04:47:05;;;;;;;;;;;;;;;;;;5101333;28;19977;-75
2022/10/06 04:49:31;;;;;;;;;;;;;;;;;;5088412;28;19963;-74
2022/10/06 04:51:57;;;;;;;;;;;;;;;;;;5098101;28;19959;-75
2022/10/06 04:54:24;;;;;;;;;;;;;;;;;;5094360;28;20380;-75
2022/10/06 04:56:50;;;;;;;;;;;;;;;;;;5100816;27;19975;-75
2022/10/06 04:59:16;;;;;;;;;;;;;;;;;;5089597;28;19962;-75
2022/10/06 05:01:42;;;;;;;;;;;;;;;;;;5085141;28;20568;-75
2022/10/06 05:04:08;;;;;;;;;;;;;;;;;;5103316;28;19954;-75
2022/10/06 05:06:35;;;;;;;;;;;;;;;;;;5089407;28;20002;-76
2022/10/06 05:09:01;;;;;;;;;;;;;;;;;;5093430;28;20188;-75
2022/10/06 05:11:27;;;;;;;;;;;;;;;;;;5096569;28;19959;-75
2022/10/06 05:13:53;;;;;;;;;;;;;;;;;;5097739;28;19963;-75
2022/10/06 05:16:19;;;;;;;;;;;;;;;;;;5104558;28;19951;-75
2022/10/06 05:18:46;;;;;;;;;;;;;;;;;;5083055;28;19962;-74
2022/10/06 05:21:12;;;;;;;;;;;;;;;;;;5102095;28;19958;-75
2022/10/06 05:23:39;;;;;;;;;;;;;;;;;;5101241;28;20437;-75
2022/10/06 05:26:05;;;;;;;;;;;;;;;;;;5103000;28;19965;-74
2022/10/06 05:28:31;;;;;;;;;;;;;;;;;;5102143;28;20395;-73
2022/10/06 05:30:57;;;;;;;;;;;;;;;;;;5099072;28;19955;-74
2022/10/06 05:33:23;;;;;;;;;;;;;;;;;;5095031;28;19951;-74
2022/10/06 05:35:50;;;;;;;;;;;;;;;;;;5083159;28;19951;-73
2022/10/06 05:38:16;;;;;;;;;;;;;;;;;;5100911;28;19947;-74
2022/10/06 05:40:42;;;;;;;;;;;;;;;;;;5097427;28;19963;-74
2022/10/06 05:43:08;;;;;;;;;;;;;;;;;;5100441;28;19978;-74
2022/10/06 05:45:34;;;;;;;;;;;;;;;;;;5098173;28;19955;-74
2022/10/06 05:48:01;;;;;;;;;;;;;;;;;;5094850;28;20454;-75
2022/10/06 05:50:27;;;;;;;;;;;;;;;;;;5077032;28;20383;-75
2022/10/06 05:52:53;;;;;;;;;;;;;;;;;;5105124;28;20014;-74
2022/10/06 05:55:20;;;;;;;;;;;;;;;;;;5099829;28;19954;-74
2022/10/06 05:57:46;;;;;;;;;;;;;;;;;;5094559;28;20326;-74
2022/10/06 06:00:12;;;;;;;;;;;;;;;;;;5077210;28;19951;-74
2022/10/06 06:02:38;;;;;;;;;;;;;;;;;;5082282;28;19967;-74
2022/10/06 06:05:04;;;;;;;;;;;;;;;;;;5081383;28;19948;-74
2022/10/06 06:07:30;;;;;;;;;;;;;;;;;;5100028;28;19967;-74
2022/10/06 06:09:57;;;;;;;;;;;;;;;;;;5096337;28;19967;-74
2022/10/06 06:12:23;;;;;;;;;;;;;;;;;;5097635;28;19963;-74
2022/10/06 06:17:34;;;;;;;;;;;;;;;;;;5101096;28;20037;-75
2022/10/06 06:20:00;;;;;;;;;;;;;;;;;;5102521;28;19955;-75
2022/10/06 06:22:27;;;;;;;;;;;;;;;;;;5102211;28;19958;-74
2022/10/06 06:24:53;;;;;;;;;;;;;;;;;;5098737;28;20504;-75
2022/10/06 06:27:19;;;;;;;;;;;;;;;;;;5095088;28;19978;-75
2022/10/06 06:29:45;;;;;;;;;;;;;;;;;;5086134;28;19962;-75
2022/10/06 06:32:12;;;;;;;;;;;;;;;;;;5094863;28;20441;-75
2022/10/06 06:34:38;;;;;;;;;;;;;;;;;;5095593;28;19954;-75
2022/10/06 06:37:04;;;;;;;;;;;;;;;;;;5103916;28;20671;-74
2022/10/06 06:39:30;;;;;;;;;;;;;;;;;;5095222;28;19954;-74
2022/10/06 06:41:56;;;;;;;;;;;;;;;;;;5076342;28;19994;-74
2022/10/06 06:44:23;;;;;;;;;;;;;;;;;;5078337;28;20354;-74
2022/10/06 06:46:50;;;;;;;;;;;;;;;;;;5100941;28;19962;-74
2022/10/06 06:49:17;;;;;;;;;;;;;;;;;;5070302;28;20003;-74
2022/10/06 06:51:44;;;;;;;;;;;;;;;;;;5099277;28;19959;-75
2022/10/06 06:54:10;;;;;;;;;;;;;;;;;;5096759;28;19960;-74
2022/10/06 06:56:37;;;;;;;;;;;;;;;;;;5080137;28;20448;-75
2022/10/06 06:59:09;;;;;;;;;;;;;;;;;;5106761;28;19966;-74
2022/10/06 07:01:35;;;;;;;;;;;;;;;;;;5092056;28;19962;-75
2022/10/06 07:04:01;;;;;;;;;;;;;;;;;;5102290;28;19947;-73
2022/10/06 07:06:27;;;;;;;;;;;;;;;;;;5102335;28;19955;-74
2022/10/06 07:08:54;;;;;;;;;;;;;;;;;;5095052;28;20304;-74
2022/10/06 07:11:20;;;;;;;;;;;;;;;;;;5104395;28;19951;-74
2022/10/06 07:13:46;;;;;;;;;;;;;;;;;;5103610;28;20703;-75
2022/10/06 07:27:14;;;;;;;;;;;;;;;;;;5100509;27;21272;-74
2022/10/06 07:29:40;;;;;;;;;;;;;;;;;;5101366;28;19959;-75
2022/10/06 07:32:06;;;;;;;;;;;;;;;;;;5092329;28;20061;-74
2022/10/06 07:34:32;;;;;;;;;;;;;;;;;;5102476;28;19985;-75
2022/10/06 07:36:59;;;;;;;;;;;;;;;;;;5103788;28;19951;-74
2022/10/06 07:39:25;;;;;;;;;;;;;;;;;;5097382;28;20510;-75
2022/10/06 07:41:51;;;;;;;;;;;;;;;;;;5107325;27;20347;-75
2022/10/06 07:44:17;;;;;;;;;;;;;;;;;;5106335;28;19959;-74
2022/10/06 07:46:44;;;;;;;;;;;;;;;;;;5104191;28;19977;-75
2022/10/06 07:49:10;;;;;;;;;;;;;;;;;;5098834;28;19986;-75
2022/10/06 07:51:36;;;;;;;;;;;;;;;;;;5099258;28;20324;-75
2022/10/06 07:54:03;;;;;;;;;;;;;;;;;;5100265;28;19970;-75
2022/10/06 07:56:30;;;;;;;;;;;;;;;;;;5105381;28;19954;-75
2022/10/06 07:58:57;;;;;;;;;;;;;;;;;;5092821;28;19956;-75
2022/10/06 08:01:25;;;;;;;;;;;;;;;;;;5096732;28;19974;-75
2022/10/06 08:03:51;;;;;;;;;;;;;;;;;;5087008;28;20012;-74
2022/10/06 08:06:18;;;;;;;;;;;;;;;;;;5080997;28;19963;-75
2022/10/06 08:08:44;;;;;;;;;;;;;;;;;;5099915;28;19963;-74
2022/10/06 08:11:11;;;;;;;;;;;;;;;;;;5086542;28;19955;-74
2022/10/06 08:13:37;;;;;;;;;;;;;;;;;;5108405;28;19959;-74
2022/10/06 08:16:03;;;;;;;;;;;;;;;;;;5108622;28;19963;-74
2022/10/06 08:18:30;;;;;;;;;;;;;;;;;;5100582;28;19912;-74
2022/10/06 08:20:58;;;;;;;;;;;;;;;;;;5091621;28;19913;-75
2022/10/06 08:23:24;;;;;;;;;;;;;;;;;;5085074;28;20009;-75
2022/10/06 08:25:52;;;;;;;;;;;;;;;;;;5097973;28;20413;-75
2022/10/06 08:28:19;;;;;;;;;;;;;;;;;;5080522;28;19958;-75
2022/10/06 08:30:45;;;;;;;;;;;;;;;;;;5095742;28;19951;-75
2022/10/06 08:33:11;;;;;;;;;;;;;;;;;;5106486;28;19962;-74
2022/10/06 08:35:38;;;;;;;;;;;;;;;;;;5094847;28;19959;-75
2022/10/06 08:38:04;;;;;;;;;;;;;;;;;;5099010;28;19958;-75
2022/10/06 08:40:30;;;;;;;;;;;;;;;;;;5091347;28;19947;-76
2022/10/06 08:42:57;;;;;;;;;;;;;;;;;;5108141;28;19955;-75
2022/10/06 08:45:23;;;;;;;;;;;;;;;;;;5101834;28;19952;-74
2022/10/06 08:47:49;;;;;;;;;;;;;;;;;;5105806;28;19962;-75
2022/10/06 08:50:16;;;;;;;;;;;;;;;;;;5102891;28;19959;-75
2022/10/06 08:52:45;;;;;;;;;;;;;;;;;;5084298;28;19952;-74
2022/10/06 08:55:11;;;;;;;;;;;;;;;;;;5104692;28;19944;-74
2022/10/06 08:57:37;;;;;;;;;;;;;;;;;;5104547;28;19989;-74
2022/10/06 09:00:03;;;;;;;;;;;;;;;;;;5104236;28;19956;-75
2022/10/06 09:02:29;;;;;;;;;;;;;;;;;;5099843;28;19973;-75
2022/10/06 09:04:56;;;;;;;;;;;;;;;;;;5096755;28;20375;-75
2022/10/06 09:07:23;;;;;;;;;;;;;;;;;;5090910;28;19960;-75
2022/10/06 09:09:52;;;;;;;;;;;;;;;;;;5105730;28;19997;-75
2022/10/06 09:12:18;;;;;;;;;;;;;;;;;;5104477;28;19990;-75
2022/10/06 09:14:44;;;;;;;;;;;;;;;;;;5100793;28;20631;-75
2022/10/06 09:17:10;;;;;;;;;;;;;;;;;;5098108;28;19958;-75
2022/10/06 09:19:36;;;;;;;;;;;;;;;;;;5103945;27;19985;-74
2022/10/06 09:22:03;;;;;;;;;;;;;;;;;;5095128;28;19959;-74
2022/10/06 09:24:29;;;;;;;;;;;;;;;;;;5101945;28;19959;-74
2022/10/06 09:26:56;;;;;;;;;;;;;;;;;;5081090;28;20077;-74
2022/10/06 09:29:22;;;;;;;;;;;;;;;;;;5104755;28;19958;-74
2022/10/06 09:31:49;;;;;;;;;;;;;;;;;;5096894;28;19988;-75
2022/10/06 09:34:15;;;;;;;;;;;;;;;;;;5099644;28;19955;-74
2022/10/06 09:36:41;;;;;;;;;;;;;;;;;;5099161;28;19951;-74
2022/10/06 09:39:08;;;;;;;;;;;;;;;;;;5098886;28;19947;-74
2022/10/06 09:41:34;;;;;;;;;;;;;;;;;;5097528;28;20439;-75
2022/10/06 09:44:00;;;;;;;;;;;;;;;;;;5079029;28;19959;-75
2022/10/06 09:46:26;;;;;;;;;;;;;;;;;;5104104;28;20724;-73
2022/10/06 09:48:53;;;;;;;;;;;;;;;;;;5103902;28;19951;-73
2022/10/06 09:51:22;;;;;;;;;;;;;;;;;;5074009;28;19959;-74
2022/10/06 09:53:48;;;;;;;;;;;;;;;;;;5100581;28;19982;-74
2022/10/06 09:56:17;;;;;;;;;;;;;;;;;;5075461;28;20292;-74
2022/10/06 09:58:45;;;;;;;;;;;;;;;;;;5092225;28;19962;-75
2022/10/06 10:01:13;;;;;;;;;;;;;;;;;;5095537;28;20438;-75
2022/10/06 10:03:39;;;;;;;;;;;;;;;;;;5099827;28;19966;-75
2022/10/06 10:06:06;;;;;;;;;;;;;;;;;;5090021;28;19927;-74
2022/10/06 10:08:32;;;;;;;;;;;;;;;;;;5094925;28;19974;-74
2022/10/06 10:10:59;;;;;;;;;;;;;;;;;;5097245;28;19954;-75
2022/10/06 10:13:25;;;;;;;;;;;;;;;;;;5100149;28;19966;-74
2022/10/06 10:15:54;;;;;;;;;;;;;;;;;;5093059;28;19924;-74
2022/10/06 10:18:25;;;;;;;;;;;;;;;;;;5103198;28;19935;-74
2022/10/06 10:20:53;;;;;;;;;;;;;;;;;;5089328;28;19959;-74
2022/10/06 10:23:19;;;;;;;;;;;;;;;;;;5086685;28;20415;-76
2022/10/06 10:25:45;;;;;;;;;;;;;;;;;;5095215;28;20489;-74
2022/10/06 10:28:16;;;;;;;;;;;;;;;;;;5093708;28;20388;-74
2022/10/06 10:30:42;;;;;;;;;;;;;;;;;;5097473;28;20049;-75
2022/10/06 10:33:08;;;;;;;;;;;;;;;;;;5095255;28;20006;-74
2022/10/06 10:35:35;;;;;;;;;;;;;;;;;;5095521;28;19919;-75
2022/10/06 10:38:01;;;;;;;;;;;;;;;;;;5098839;28;19947;-75
2022/10/06 10:40:27;;;;;;;;;;;;;;;;;;5098709;28;19967;-74
2022/10/06 10:42:53;;;;;;;;;;;;;;;;;;5075471;28;19959;-75
2022/10/06 10:45:20;;;;;;;;;;;;;;;;;;5097936;28;19990;-75
2022/10/06 10:47:46;;;;;;;;;;;;;;;;;;5092677;28;19963;-74
2022/10/06 10:50:12;;;;;;;;;;;;;;;;;;5100991;28;19970;-76
2022/10/06 10:52:40;;;;;;;;;;;;;;;;;;5100726;28;19958;-75
2022/10/06 10:55:06;;;;;;;;;;;;;;;;;;5101004;28;19950;-74
2022/10/06 10:57:32;;;;;;;;;;;;;;;;;;5100612;28;19982;-74
2022/10/06 10:59:58;;;;;;;;;;;;;;;;;;5087285;28;19956;-74
2022/10/06 11:02:25;;;;;;;;;;;;;;;;;;5089202;28;19987;-74
2022/10/06 11:04:51;;;;;;;;;;;;;;;;;;5073816;28;19962;-75
2022/10/06 11:07:19;;;;;;;;;;;;;;;;;;5098998;28;19948;-74
2022/10/06 11:09:46;;;;;;;;;;;;;;;;;;5089731;28;19949;-74
2022/10/06 11:12:12;;;;;;;;;;;;;;;;;;5086398;28;19957;-75
2022/10/06 11:14:38;;;;;;;;;;;;;;;;;;5073026;28;19954;-74
2022/10/06 11:17:04;;;;;;;;;;;;;;;;;;5094450;28;19951;-74
2022/10/06 11:19:33;;;;;;;;;;;;;;;;;;5097139;28;19947;-75
2022/10/06 11:22:00;;;;;;;;;;;;;;;;;;5097804;28;20008;-74
2022/10/06 11:24:26;;;;;;;;;;;;;;;;;;5095476;28;19971;-74
2022/10/06 11:26:53;;;;;;;;;;;;;;;;;;5101762;28;19955;-75
2022/10/06 11:29:19;;;;;;;;;;;;;;;;;;5102795;28;20366;-74
2022/10/06 11:31:45;;;;;;;;;;;;;;;;;;5102769;28;19945;-74
2022/10/06 11:34:11;;;;;;;;;;;;;;;;;;5095326;28;20406;-74
2022/10/06 11:36:38;;;;;;;;;;;;;;;;;;5097823;28;19951;-75
2022/10/06 11:39:04;;;;;;;;;;;;;;;;;;5094480;28;19948;-75
2022/10/06 11:41:30;;;;;;;;;;;;;;;;;;5083191;28;19959;-76
2022/10/06 11:43:59;;;;;;;;;;;;;;;;;;5098699;28;20382;-74
2022/10/06 11:46:25;;;;;;;;;;;;;;;;;;5104493;28;20065;-75
2022/10/06 11:48:52;;;;;;;;;;;;;;;;;;5108803;27;19947;-73
2022/10/06 11:51:19;;;;;;;;;;;;;;;;;;5099136;28;19955;-74
2022/10/06 11:53:46;;;;;;;;;;;;;;;;;;5098110;28;20331;-74
2022/10/06 11:56:12;;;;;;;;;;;;;;;;;;5107808;28;19978;-75
2022/10/06 11:58:38;;;;;;;;;;;;;;;;;;5101682;28;20365;-75
2022/10/06 12:01:04;;;;;;;;;;;;;;;;;;5098123;28;19963;-74
2022/10/06 12:03:30;;;;;;;;;;;;;;;;;;5098312;28;20374;-76
2022/10/06 12:05:56;;;;;;;;;;;;;;;;;;5098568;28;19955;-75
2022/10/06 12:08:23;;;;;;;;;;;;;;;;;;5101669;28;19973;-75
2022/10/06 12:10:49;;;;;;;;;;;;;;;;;;5099334;28;20407;-75
2022/10/06 12:13:15;;;;;;;;;;;;;;;;;;5105994;28;19959;-74
2022/10/06 12:15:41;;;;;;;;;;;;;;;;;;5107874;28;19958;-75
2022/10/06 12:18:09;;;;;;;;;;;;;;;;;;5107144;28;19989;-73
2022/10/06 12:20:36;;;;;;;;;;;;;;;;;;5080021;28;19959;-74
2022/10/06 12:23:02;;;;;;;;;;;;;;;;;;5107979;28;20363;-74
2022/10/06 12:25:29;;;;;;;;;;;;;;;;;;5102188;28;19966;-74
2022/10/06 12:27:55;;;;;;;;;;;;;;;;;;5088873;28;20436;-74
2022/10/06 12:30:21;;;;;;;;;;;;;;;;;;5107194;28;19964;-73
2022/10/06 12:32:47;;;;;;;;;;;;;;;;;;5097429;28;20410;-74
2022/10/06 12:35:14;;;;;;;;;;;;;;;;;;5098633;28;19955;-74
2022/10/06 12:37:40;;;;;;;;;;;;;;;;;;5100156;27;19963;-75
2022/10/06 12:40:06;;;;;;;;;;;;;;;;;;5096524;27;20054;-83
2022/10/06 12:42:32;;;;;;;;;;;;;;;;;;5072783;28;19967;-82
2022/10/06 12:44:59;;;;;;;;;;;;;;;;;;5085215;28;19950;-82
2022/10/06 12:47:25;;;;;;;;;;;;;;;;;;5076930;28;19954;-82
2022/10/06 12:49:52;;;;;;;;;;;;;;;;;;5070757;28;19994;-81
2022/10/06 12:52:19;;;;;;;;;;;;;;;;;;5104560;28;20334;-81
2022/10/06 12:54:46;;;;;;;;;;;;;;;;;;5086910;28;19947;-82
2022/10/06 12:57:12;;;;;;;;;;;;;;;;;;5076371;28;19959;-83
2022/10/06 12:59:39;;;;;;;;;;;;;;;;;;5075303;28;19944;-82
2022/10/06 13:02:05;;;;;;;;;;;;;;;;;;5077427;28;20005;-83
2022/10/06 13:04:33;;;;;;;;;;;;;;;;;;5093834;28;19958;-82
2022/10/06 13:06:59;;;;;;;;;;;;;;;;;;5081374;27;19959;-82
2022/10/06 13:09:25;;;;;;;;;;;;;;;;;;5083097;28;19966;-83
2022/10/06 13:11:52;;;;;;;;;;;;;;;;;;5068975;28;20495;-85
2022/10/06 13:14:18;;;;;;;;;;;;;;;;;;5067411;28;20358;-82
2022/10/06 13:16:44;;;;;;;;;;;;;;;;;;5077074;28;19959;-83
2022/10/06 13:19:10;;;;;;;;;;;;;;;;;;5078183;28;19973;-82
2022/10/06 13:21:36;;;;;;;;;;;;;;;;;;5079479;28;19955;-84
2022/10/06 13:24:02;;;;;;;;;;;;;;;;;;5061108;28;19959;-83
2022/10/06 13:26:31;;;;;;;;;;;;;;;;;;5105158;28;20363;-82
2022/10/06 13:28:57;;;;;;;;;;;;;;;;;;5097860;28;19975;-83
2022/10/06 13:31:25;;;;;;;;;;;;;;;;;;5088229;28;19948;-84
2022/10/06 13:33:51;;;;;;;;;;;;;;;;;;5079659;28;19963;-83
2022/10/06 13:36:18;;;;;;;;;;;;;;;;;;5058441;28;19985;-83
2022/10/06 13:38:45;;;;;;;;;;;;;;;;;;5074974;28;19959;-83
2022/10/06 13:41:12;;;;;;;;;;;;;;;;;;5085775;28;19951;-84
2022/10/06 13:43:38;;;;;;;;;;;;;;;;;;5064548;28;19923;-83
2022/10/06 13:46:05;;;;;;;;;;;;;;;;;;5081845;28;20403;-83
2022/10/06 13:48:31;;;;;;;;;;;;;;;;;;5079433;28;19959;-82
2022/10/06 13:50:58;;;;;;;;;;;;;;;;;;5082149;28;20375;-83
2022/10/06 13:53:24;;;;;;;;;;;;;;;;;;5065640;28;20326;-83
2022/10/06 13:55:50;;;;;;;;;;;;;;;;;;5065811;28;25180;-83
2022/10/06 13:58:17;;;;;;;;;;;;;;;;;;5075953;28;19959;-82
2022/10/06 14:00:43;;;;;;;;;;;;;;;;;;5064875;28;19970;-83
2022/10/06 14:03:09;;;;;;;;;;;;;;;;;;5082568;28;19950;-82
2022/10/06 14:05:36;;;;;;;;;;;;;;;;;;5072070;28;19947;-82
2022/10/06 14:08:02;;;;;;;;;;;;;;;;;;5099472;28;19973;-82
2022/10/06 14:10:29;;;;;;;;;;;;;;;;;;5072811;28;19982;-82
2022/10/06 14:12:56;;;;;;;;;;;;;;;;;;5081969;28;19951;-82
2022/10/06 14:15:22;;;;;;;;;;;;;;;;;;5082622;28;19962;-81
2022/10/06 14:17:48;;;;;;;;;;;;;;;;;;5071141;27;19977;-82
2022/10/06 14:20:14;;;;;;;;;;;;;;;;;;5064790;28;19916;-81
2022/10/06 14:22:40;;;;;;;;;;;;;;;;;;5081858;28;19945;-82
2022/10/06 14:25:07;;;;;;;;;;;;;;;;;;5066229;28;19951;-81
2022/10/06 14:27:33;;;;;;;;;;;;;;;;;;5081735;28;19962;-82
2022/10/06 14:29:59;;;;;;;;;;;;;;;;;;5063378;28;20015;-82
2022/10/06 14:32:25;;;;;;;;;;;;;;;;;;5078515;28;19951;-82
2022/10/06 14:34:52;;;;;;;;;;;;;;;;;;5078844;28;19959;-83
2022/10/06 14:37:18;;;;;;;;;;;;;;;;;;5076014;28;19966;-83
2022/10/06 14:39:44;;;;;;;;;;;;;;;;;;5060247;28;19947;-83
2022/10/06 14:42:10;;;;;;;;;;;;;;;;;;5064805;28;19947;-83
2022/10/06 14:44:37;;;;;;;;;;;;;;;;;;5075122;28;19989;-82
2022/10/06 14:47:04;;;;;;;;;;;;;;;;;;5097294;28;19980;-83
2022/10/06 14:49:31;;;;;;;;;;;;;;;;;;5065778;28;20628;-81
2022/10/06 14:51:57;;;;;;;;;;;;;;;;;;5065780;28;19986;-82
2022/10/06 14:54:24;;;;;;;;;;;;;;;;;;5068424;28;20557;-82
2022/10/06 14:56:52;;;;;;;;;;;;;;;;;;5063081;28;19959;-82
2022/10/06 14:59:18;;;;;;;;;;;;;;;;;;5077673;28;19924;-82
2022/10/06 15:01:44;;;;;;;;;;;;;;;;;;5060852;28;19947;-82
2022/10/06 15:04:11;;;;;;;;;;;;;;;;;;5061356;28;19975;-83
2022/10/06 15:09:22;;;;;;;;;;;;;;;;;;5097555;28;20362;-83
2022/10/06 15:11:49;;;;;;;;;;;;;;;;;;5081178;28;19967;-82
2022/10/06 15:14:15;;;;;;;;;;;;;;;;;;5067246;28;19970;-83
2022/10/06 15:16:43;;;;;;;;;;;;;;;;;;5064258;28;19944;-83
2022/10/06 15:19:09;;;;;;;;;;;;;;;;;;5064602;28;19977;-82
2022/10/06 15:21:38;;;;;;;;;;;;;;;;;;5102696;28;19989;-82
2022/10/06 15:24:04;;;;;;;;;;;;;;;;;;5069573;28;19951;-82
2022/10/06 15:29:15;;;;;;;;;;;;;;;;;;5082794;28;20299;-82
2022/10/06 15:31:42;;;;;;;;;;;;;;;;;;5079873;28;20036;-82
2022/10/06 15:34:08;;;;;;;;;;;;;;;;;;5104326;28;19924;-83
2022/10/06 15:36:37;;;;;;;;;;;;;;;;;;5064091;28;20028;-83
2022/10/06 15:39:03;;;;;;;;;;;;;;;;;;5067095;28;19948;-82
2022/10/06 15:41:31;;;;;;;;;;;;;;;;;;5082854;28;19924;-82
2022/10/06 15:43:57;;;;;;;;;;;;;;;;;;5080575;28;20284;-83
2022/10/06 15:46:26;;;;;;;;;;;;;;;;;;5080663;28;20008;-83
2022/10/06 15:48:53;;;;;;;;;;;;;;;;;;5086766;28;19966;-82
2022/10/06 15:51:20;;;;;;;;;;;;;;;;;;5083317;28;20388;-81
2022/10/06 15:53:47;;;;;;;;;;;;;;;;;;5076396;28;19947;-82
2022/10/06 15:56:13;;;;;;;;;;;;;;;;;;5062210;28;20347;-82
2022/10/06 15:58:39;;;;;;;;;;;;;;;;;;5078388;28;19920;-81
2022/10/06 16:01:09;;;;;;;;;;;;;;;;;;5083401;28;19962;-82
2022/10/06 16:03:37;;;;;;;;;;;;;;;;;;5066474;28;19919;-82
2022/10/06 16:06:04;;;;;;;;;;;;;;;;;;5065383;28;19912;-82
2022/10/06 16:08:31;;;;;;;;;;;;;;;;;;5068172;28;20540;-84
2022/10/06 16:10:58;;;;;;;;;;;;;;;;;;5067577;28;19959;-82
2022/10/06 16:13:24;;;;;;;;;;;;;;;;;;5084352;28;19947;-82
2022/10/06 16:15:50;;;;;;;;;;;;;;;;;;5096234;28;19959;-82
2022/10/06 16:18:16;;;;;;;;;;;;;;;;;;5098094;27;19970;-82
2022/10/06 16:20:42;;;;;;;;;;;;;;;;;;5100977;28;19946;-83
2022/10/06 16:23:09;;;;;;;;;;;;;;;;;;5094059;28;20068;-77
2022/10/06 16:25:35;;;;;;;;;;;;;;;;;;5098887;28;19959;-78
2022/10/06 16:28:01;;;;;;;;;;;;;;;;;;5084418;28;20449;-77
2022/10/06 16:30:27;;;;;;;;;;;;;;;;;;5096923;28;19963;-72
2022/10/06 16:32:53;;;;;;;;;;;;;;;;;;5092458;28;19932;-72
2022/10/06 16:35:19;;;;;;;;;;;;;;;;;;5090326;28;19961;-73
2022/10/06 16:37:48;;;;;;;;;;;;;;;;;;5085560;28;19951;-75
2022/10/06 16:40:16;;;;;;;;;;;;;;;;;;5084657;28;19965;-74
2022/10/06 16:42:43;;;;;;;;;;;;;;;;;;5095085;27;19963;-74
2022/10/06 16:45:10;;;;;;;;;;;;;;;;;;5084000;28;19970;-73
2022/10/06 16:47:36;;;;;;;;;;;;;;;;;;5082170;28;19959;-74
2022/10/06 16:50:02;;;;;;;;;;;;;;;;;;5090374;28;19967;-74
2022/10/06 16:52:28;;;;;;;;;;;;;;;;;;5085247;28;19960;-73
2022/10/06 16:54:55;;;;;;;;;;;;;;;;;;5089513;28;19920;-73
2022/10/06 16:57:21;;;;;;;;;;;;;;;;;;5093162;28;19959;-73
2022/10/06 16:59:47;;;;;;;;;;;;;;;;;;5082616;28;19952;-73